createdAt,value
2022-09-07T00:01:33.308Z,19.47
2022-09-07T00:04:02.170Z,19.46
2022-09-07T00:06:31.343Z,19.38
2022-09-07T00:09:00.630Z,19.38
2022-09-07T00:11:31.050Z,19.38
2022-09-07T00:14:02.161Z,19.42
2022-09-07T00:16:32.736Z,19.40
2022-09-07T00:19:05.242Z,19.36
2022-09-07T00:21:35.077Z,19.35
2022-09-07T00:24:04.508Z,19.37
2022-09-07T00:26:33.959Z,19.34
2022-09-07T00:29:06.397Z,19.33
2022-09-07T00:31:35.403Z,19.30
2022-09-07T00:34:05.417Z,19.30
2022-09-07T00:36:35.264Z,19.30
2022-09-07T00:39:04.045Z,19.33
2022-09-07T00:41:33.066Z,19.29
2022-09-07T00:45:03.643Z,19.31
2022-09-07T00:47:45.505Z,19.31
2022-09-07T00:50:23.355Z,19.29
2022-09-07T00:53:00.453Z,19.30
2022-09-07T00:55:32.539Z,19.30
2022-09-07T00:58:02.045Z,19.31
2022-09-07T01:00:36.194Z,19.30
2022-09-07T01:03:07.656Z,19.31
2022-09-07T01:05:43.156Z,19.30
2022-09-07T01:08:14.760Z,19.31
2022-09-07T01:10:43.924Z,19.34
2022-09-07T01:13:12.555Z,19.34
2022-09-07T01:15:54.054Z,19.28
2022-09-07T01:18:36.095Z,19.21
2022-09-07T01:21:27.121Z,19.09
2022-09-07T01:24:43.712Z,19.13
2022-09-07T01:28:06.895Z,19.12
2022-09-07T01:30:40.104Z,19.13
2022-09-07T01:33:32.654Z,19.05
2022-09-07T01:36:17.830Z,19.04
2022-09-07T01:38:52.533Z,19.02
2022-09-07T01:41:30.722Z,19.02
2022-09-07T01:44:07.959Z,19.02
2022-09-07T01:46:44.674Z,19.04
2022-09-07T01:49:21.430Z,19.00
2022-09-07T01:51:57.922Z,18.93
2022-09-07T01:54:34.240Z,18.88
2022-09-07T01:57:12.595Z,18.86
2022-09-07T01:59:49.182Z,18.89
2022-09-07T02:02:26.597Z,18.93
2022-09-07T02:05:01.578Z,18.92
2022-09-07T02:07:41.895Z,18.94
2022-09-07T02:10:18.118Z,18.90
2022-09-07T02:12:53.803Z,18.85
2022-09-07T02:15:30.188Z,18.86
2022-09-07T02:18:06.545Z,18.81
2022-09-07T02:20:39.790Z,18.78
2022-09-07T02:23:15.770Z,18.77
2022-09-07T02:25:52.503Z,18.79
2022-09-07T02:28:29.395Z,18.80
2022-09-07T02:31:00.583Z,18.80
2022-09-07T02:33:30.703Z,18.76
2022-09-07T02:36:02.177Z,18.70
2022-09-07T02:38:31.727Z,18.72
2022-09-07T02:41:03.522Z,18.75
2022-09-07T02:43:34.377Z,18.78
2022-09-07T02:47:07.747Z,18.71
2022-09-07T02:50:18.132Z,18.69
2022-09-07T02:53:08.246Z,18.65
2022-09-07T02:55:53.792Z,18.67
2022-09-07T02:58:37.198Z,18.68
2022-09-07T03:01:18.104Z,18.64
2022-09-07T03:04:03.716Z,18.67
2022-09-07T03:06:42.061Z,18.68
2022-09-07T03:09:18.304Z,18.67
2022-09-07T03:11:47.848Z,18.64
2022-09-07T03:14:19.790Z,18.64
2022-09-07T03:16:51.296Z,18.67
2022-09-07T03:19:21.646Z,18.66
2022-09-07T03:21:50.808Z,18.64
2022-09-07T03:24:19.595Z,18.63
2022-09-07T03:26:50.680Z,18.63
2022-09-07T03:29:19.652Z,18.64
2022-09-07T03:31:48.972Z,18.63
2022-09-07T03:34:21.535Z,18.63
2022-09-07T03:36:50.844Z,18.58
2022-09-07T03:39:22.756Z,18.54
2022-09-07T03:41:52.173Z,18.49
2022-09-07T03:44:20.843Z,18.49
2022-09-07T03:46:50.557Z,18.48
2022-09-07T03:49:21.332Z,18.45
2022-09-07T03:51:50.472Z,18.44
2022-09-07T03:54:19.753Z,18.43
2022-09-07T03:56:48.856Z,18.38
2022-09-07T03:59:17.613Z,18.34
2022-09-07T04:01:46.790Z,18.29
2022-09-07T04:04:15.869Z,18.31
2022-09-07T04:06:47.294Z,18.31
2022-09-07T04:09:16.626Z,18.25
2022-09-07T04:11:45.932Z,18.26
2022-09-07T04:14:15.303Z,18.27
2022-09-07T04:16:45.594Z,18.20
2022-09-07T04:19:14.726Z,18.19
2022-09-07T04:21:47.183Z,18.18
2022-09-07T04:24:18.681Z,18.19
2022-09-07T04:26:47.705Z,18.18
2022-09-07T04:29:17.226Z,18.16
2022-09-07T04:31:46.388Z,18.13
2022-09-07T04:34:15.837Z,18.14
2022-09-07T04:36:44.777Z,18.11
2022-09-07T04:39:13.930Z,18.07
2022-09-07T04:41:44.748Z,18.07
2022-09-07T04:44:16.941Z,18.12
2022-09-07T04:46:46.063Z,18.12
2022-09-07T04:49:14.929Z,18.09
2022-09-07T04:51:44.603Z,18.08
2022-09-07T04:54:14.338Z,18.09
2022-09-07T04:56:44.859Z,18.09
2022-09-07T04:59:13.938Z,18.07
2022-09-07T05:01:42.772Z,18.06
2022-09-07T05:04:11.947Z,18.05
2022-09-07T05:06:40.699Z,18.07
2022-09-07T05:09:09.495Z,18.06
2022-09-07T05:11:38.125Z,18.04
2022-09-07T05:14:08.391Z,18.04
2022-09-07T05:16:37.110Z,17.98
2022-09-07T05:19:07.265Z,17.92
2022-09-07T05:21:36.913Z,17.93
2022-09-07T05:24:08.023Z,17.91
2022-09-07T05:26:39.825Z,17.86
2022-09-07T05:31:59.334Z,17.87
2022-09-07T05:37:02.869Z,17.86
2022-09-07T05:39:31.755Z,17.85
2022-09-07T05:42:00.534Z,17.83
2022-09-07T05:44:47.383Z,17.81
2022-09-07T05:47:16.513Z,17.82
2022-09-07T05:49:45.417Z,17.83
2022-09-07T05:52:14.551Z,17.82
2022-09-07T05:54:43.535Z,17.83
2022-09-07T05:57:14.030Z,17.81
2022-09-07T05:59:44.852Z,17.82
2022-09-07T06:02:16.122Z,17.84
2022-09-07T06:04:45.108Z,17.84
2022-09-07T06:07:23.211Z,17.84
2022-09-07T06:12:48.937Z,17.89
2022-09-07T06:15:19.839Z,17.91
2022-09-07T06:17:49.204Z,17.97
2022-09-07T06:20:19.662Z,17.99
2022-09-07T06:22:48.353Z,18.01
2022-09-07T06:25:17.499Z,18.09
2022-09-07T06:27:50.024Z,18.14
2022-09-07T06:30:20.951Z,18.19
2022-09-07T06:32:49.638Z,18.23
2022-09-07T06:35:18.685Z,18.30
2022-09-07T06:37:47.387Z,18.36
2022-09-07T06:40:17.226Z,18.41
2022-09-07T06:42:46.607Z,18.46
2022-09-07T06:45:15.458Z,18.52
2022-09-07T06:47:45.674Z,18.57
2022-09-07T06:50:15.287Z,18.63
2022-09-07T06:55:33.577Z,18.72
2022-09-07T06:58:02.273Z,18.79
2022-09-07T07:00:31.874Z,18.83
2022-09-07T07:03:02.662Z,18.85
2022-09-07T07:05:31.939Z,18.91
2022-09-07T07:08:00.644Z,18.96
2022-09-07T07:10:29.957Z,19.01
2022-09-07T07:12:58.903Z,19.07
2022-09-07T07:15:29.804Z,19.13
2022-09-07T07:18:09.541Z,19.19
2022-09-07T07:20:50.062Z,19.21
2022-09-07T07:23:18.964Z,19.22
2022-09-07T07:25:48.253Z,19.28
2022-09-07T07:31:11.309Z,19.37
2022-09-07T07:33:42.756Z,19.43
2022-09-07T07:36:15.767Z,19.48
2022-09-07T07:39:05.091Z,19.50
2022-09-07T07:44:23.521Z,19.54
2022-09-07T07:46:52.811Z,19.56
2022-09-07T07:49:22.118Z,19.59
2022-09-07T07:54:44.390Z,19.62
2022-09-07T07:57:13.555Z,19.69
2022-09-07T07:59:42.782Z,19.76
2022-09-07T08:02:17.912Z,19.74
2022-09-07T08:04:47.710Z,19.76
2022-09-07T08:07:19.541Z,19.74
2022-09-07T08:09:49.398Z,19.74
2022-09-07T08:12:20.486Z,19.74
2022-09-07T08:14:49.792Z,19.74
2022-09-07T08:17:20.029Z,19.76
2022-09-07T08:19:48.499Z,19.74
2022-09-07T08:22:18.990Z,19.78
2022-09-07T08:24:47.515Z,19.83
2022-09-07T08:27:20.646Z,19.81
2022-09-07T08:29:49.125Z,19.89
2022-09-07T08:32:18.378Z,19.93
2022-09-07T08:34:48.547Z,19.92
2022-09-07T08:37:18.582Z,19.94
2022-09-07T08:39:47.563Z,19.94
2022-09-07T08:42:42.983Z,19.91
2022-09-07T08:45:17.571Z,19.95
2022-09-07T08:47:51.135Z,19.94
2022-09-07T08:50:25.122Z,19.99
2022-09-07T08:53:02.684Z,19.96
2022-09-07T08:55:38.299Z,19.99
2022-09-07T08:58:32.238Z,20.02
2022-09-07T09:06:52.569Z,20.16
2022-09-07T09:09:43.610Z,20.21
2022-09-07T09:12:26.568Z,20.24
2022-09-07T09:15:15.191Z,20.22
2022-09-07T09:17:55.416Z,20.27
2022-09-07T09:20:32.453Z,20.30
2022-09-07T09:23:12.341Z,20.30
2022-09-07T09:25:53.848Z,20.35
2022-09-07T09:28:24.692Z,20.36
2022-09-07T09:30:55.323Z,20.42
2022-09-07T09:33:27.381Z,20.42
2022-09-07T09:35:59.118Z,20.47
2022-09-07T09:38:37.273Z,20.53
2022-09-07T09:41:10.793Z,20.58
2022-09-07T09:43:46.609Z,20.56
2022-09-07T09:46:24.731Z,20.61
2022-09-07T09:49:01.078Z,20.62
2022-09-07T09:54:33.098Z,20.72
2022-09-07T09:57:04.344Z,20.74
2022-09-07T10:05:30.914Z,20.82
2022-09-07T10:08:00.125Z,20.85
2022-09-07T10:10:31.478Z,20.87
2022-09-07T10:13:01.713Z,20.93
2022-09-07T10:15:41.312Z,20.98
2022-09-07T10:18:29.194Z,21.05
2022-09-07T10:21:24.856Z,21.12
2022-09-07T10:24:00.297Z,21.18
2022-09-07T10:26:35.648Z,21.23
2022-09-07T10:29:17.516Z,21.30
2022-09-07T10:32:24.662Z,21.38
2022-09-07T10:35:19.091Z,21.42
2022-09-07T10:38:03.309Z,21.47
2022-09-07T10:40:42.529Z,21.53
2022-09-07T10:43:25.359Z,21.61
2022-09-07T10:52:53.033Z,21.81
2022-09-07T10:55:32.368Z,21.87
2022-09-07T10:59:01.422Z,21.92
2022-09-07T11:01:24.305Z,21.98
2022-09-07T11:04:46.580Z,22.03
2022-09-07T11:07:37.535Z,22.06
2022-09-07T11:10:27.079Z,22.13
2022-09-07T11:13:02.568Z,22.19
2022-09-07T11:15:38.137Z,22.23
2022-09-07T11:18:18.544Z,22.27
2022-09-07T11:20:55.266Z,22.27
2022-09-07T11:23:29.960Z,22.33
2022-09-07T11:26:09.191Z,22.39
2022-09-07T11:29:28.794Z,22.39
2022-09-07T11:31:43.692Z,22.43
2022-09-07T11:34:24.823Z,22.45
2022-09-07T11:37:03.092Z,22.44
2022-09-07T11:39:40.631Z,22.50
2022-09-07T11:45:18.297Z,22.55
2022-09-07T11:47:54.555Z,22.62
2022-09-07T11:50:25.556Z,22.64
2022-09-07T11:52:59.017Z,22.71
2022-09-07T11:55:34.734Z,22.83
2022-09-07T11:58:58.999Z,22.91
2022-09-07T12:01:42.257Z,22.95
2022-09-07T12:04:36.522Z,23.00
2022-09-07T12:08:01.953Z,23.08
2022-09-07T12:11:11.295Z,23.13
2022-09-07T12:14:20.869Z,23.22
2022-09-07T12:17:34.843Z,23.27
2022-09-07T12:20:16.713Z,23.27
2022-09-07T12:23:28.444Z,23.24
2022-09-07T12:26:53.722Z,23.24
2022-09-07T12:29:26.741Z,23.31
2022-09-07T12:31:58.746Z,23.38
2022-09-07T12:35:01.219Z,23.36
2022-09-07T12:37:47.722Z,23.48
2022-09-07T12:41:01.043Z,23.47
2022-09-07T12:44:08.396Z,23.57
2022-09-07T12:46:49.923Z,23.61
2022-09-07T12:50:10.111Z,23.65
2022-09-07T12:53:22.794Z,23.71
2022-09-07T12:56:27.177Z,23.83
2022-09-07T12:59:21.704Z,23.87
2022-09-07T13:02:14.160Z,23.84
2022-09-07T13:05:03.687Z,23.77
2022-09-07T13:08:30.191Z,23.83
2022-09-07T13:11:18.887Z,23.81
2022-09-07T13:14:04.775Z,23.84
2022-09-07T13:20:06.684Z,23.96
2022-09-07T13:23:23.835Z,24.00
2022-09-07T13:26:00.582Z,24.08
2022-09-07T13:28:55.878Z,24.06
2022-09-07T13:31:50.709Z,24.09
2022-09-07T13:34:56.923Z,24.17
2022-09-07T13:37:29.114Z,24.16
2022-09-07T13:40:00.073Z,24.16
2022-09-07T13:42:35.060Z,24.06
2022-09-07T13:45:10.027Z,24.19
2022-09-07T13:47:58.790Z,24.27
2022-09-07T13:50:43.232Z,24.39
2022-09-07T13:53:43.994Z,24.49
2022-09-07T13:56:36.213Z,24.33
2022-09-07T13:59:21.114Z,24.32
2022-09-07T14:01:52.304Z,24.36
2022-09-07T14:04:26.888Z,24.28
2022-09-07T14:07:03.869Z,24.28
2022-09-07T14:09:33.837Z,24.27
2022-09-07T14:12:03.253Z,24.27
2022-09-07T14:14:33.355Z,24.24
2022-09-07T14:17:08.554Z,24.21
2022-09-07T14:19:45.844Z,24.14
2022-09-07T14:22:19.028Z,24.06
2022-09-07T14:24:51.722Z,24.03
2022-09-07T14:27:25.444Z,24.07
2022-09-07T14:29:54.757Z,24.05
2022-09-07T14:32:27.311Z,24.18
2022-09-07T14:34:56.689Z,24.02
2022-09-07T14:37:26.120Z,23.98
2022-09-07T14:39:56.475Z,24.03
2022-09-07T14:42:26.818Z,24.12
2022-09-07T14:45:32.070Z,24.10
2022-09-07T14:48:13.522Z,24.01
2022-09-07T14:51:05.504Z,24.00
2022-09-07T14:53:39.168Z,24.03
2022-09-07T14:56:12.306Z,23.98
2022-09-07T14:58:41.100Z,23.92
2022-09-07T15:04:20.326Z,23.86
2022-09-07T15:07:04.565Z,23.87
2022-09-07T15:09:39.377Z,23.83
2022-09-07T15:12:27.166Z,23.79
2022-09-07T15:15:13.729Z,23.76
2022-09-07T15:17:46.259Z,23.77
2022-09-07T15:20:49.573Z,23.75
2022-09-07T15:23:20.841Z,23.73
2022-09-07T15:25:54.135Z,23.71
2022-09-07T15:34:13.428Z,23.67
2022-09-07T15:36:48.619Z,23.69
2022-09-07T15:39:20.504Z,23.70
2022-09-07T15:41:51.410Z,23.71
2022-09-07T15:44:25.016Z,23.71
2022-09-07T15:49:50.030Z,23.67
2022-09-07T15:52:20.230Z,23.63
2022-09-07T15:54:48.683Z,23.62
2022-09-07T16:00:07.739Z,23.61
2022-09-07T16:05:30.984Z,23.55
2022-09-07T16:10:55.346Z,23.54
2022-09-07T16:13:24.840Z,23.51
2022-09-07T16:15:53.427Z,23.50
2022-09-07T16:18:22.108Z,23.48
2022-09-07T16:20:53.780Z,23.43
2022-09-07T16:23:24.195Z,23.46
2022-09-07T16:26:02.407Z,23.44
2022-09-07T16:28:31.879Z,23.43
2022-09-07T16:31:00.400Z,23.44
2022-09-07T16:33:35.996Z,23.48
2022-09-07T16:36:12.079Z,23.52
2022-09-07T16:38:44.956Z,23.54
2022-09-07T16:41:17.092Z,23.58
2022-09-07T16:43:46.207Z,23.58
2022-09-07T16:46:17.272Z,23.57
2022-09-07T16:48:45.965Z,23.57
2022-09-07T16:51:17.665Z,23.55
2022-09-07T16:53:50.839Z,23.49
2022-09-07T16:56:21.511Z,23.47
2022-09-07T16:58:53.312Z,23.43
2022-09-07T17:01:25.516Z,23.41
2022-09-07T17:03:54.995Z,23.38
2022-09-07T17:06:26.126Z,23.33
2022-09-07T17:08:56.478Z,23.25
2022-09-07T17:11:26.965Z,23.21
2022-09-07T17:13:59.046Z,23.17
2022-09-07T17:16:31.172Z,23.11
2022-09-07T17:21:52.918Z,23.00
2022-09-07T17:24:23.227Z,23.00
2022-09-07T17:26:51.769Z,22.97
2022-09-07T17:29:20.614Z,22.93
2022-09-07T17:34:37.970Z,22.82
2022-09-07T17:37:07.093Z,22.77
2022-09-07T17:39:38.890Z,22.73
2022-09-07T17:42:07.841Z,22.70
2022-09-07T17:44:42.527Z,22.69
2022-09-07T17:47:11.262Z,22.62
2022-09-07T17:49:40.591Z,22.54
2022-09-07T17:52:09.191Z,22.47
2022-09-07T17:54:42.045Z,22.41
2022-09-07T17:57:10.784Z,22.34
2022-09-07T18:02:28.177Z,22.24
2022-09-07T18:04:57.166Z,22.21
2022-09-07T18:07:26.198Z,22.12
2022-09-07T18:09:56.292Z,22.12
2022-09-07T18:12:25.071Z,22.07
2022-09-07T18:14:53.895Z,22.00
2022-09-07T18:17:22.422Z,21.96
2022-09-07T18:19:51.097Z,21.87
2022-09-07T18:22:19.836Z,21.81
2022-09-07T18:24:49.162Z,21.74
2022-09-07T18:27:21.113Z,21.65
2022-09-07T18:29:50.330Z,21.59
2022-09-07T18:32:18.895Z,21.55
2022-09-07T18:34:50.612Z,21.57
2022-09-07T18:37:19.919Z,21.56
2022-09-07T18:39:48.762Z,21.56
2022-09-07T18:42:18.888Z,21.54
2022-09-07T18:47:37.034Z,21.43
2022-09-07T18:50:07.307Z,21.37
2022-09-07T18:52:52.131Z,21.34
2022-09-07T18:55:22.053Z,21.31
2022-09-07T18:57:52.008Z,21.32
2022-09-07T19:00:21.067Z,21.32
2022-09-07T19:02:51.907Z,21.31
2022-09-07T19:08:09.433Z,21.23
2022-09-07T19:10:39.487Z,21.21
2022-09-07T19:13:09.832Z,21.18
2022-09-07T19:15:38.709Z,21.13
2022-09-07T19:18:08.855Z,21.09
2022-09-07T19:20:37.809Z,21.07
2022-09-07T19:23:07.120Z,20.96
2022-09-07T19:25:36.268Z,20.86
2022-09-07T19:28:04.986Z,20.77
2022-09-07T19:30:37.454Z,20.74
2022-09-07T19:33:19.811Z,20.76
2022-09-07T19:35:49.126Z,20.76
2022-09-07T19:38:18.542Z,20.76
2022-09-07T19:40:55.541Z,20.75
2022-09-07T19:43:24.241Z,20.76
2022-09-07T19:48:23.031Z,20.55
2022-09-07T19:50:51.519Z,20.50
2022-09-07T19:53:20.648Z,20.49
2022-09-07T19:55:49.197Z,20.51
2022-09-07T19:58:17.683Z,20.51
2022-09-07T20:00:46.116Z,20.49
2022-09-07T20:03:14.649Z,20.47
2022-09-07T20:05:45.154Z,20.41
2022-09-07T20:08:14.155Z,20.31
2022-09-07T20:10:42.618Z,20.28
2022-09-07T20:13:11.080Z,20.23
2022-09-07T20:15:42.379Z,20.25
2022-09-07T20:18:12.023Z,20.24
2022-09-07T20:20:40.480Z,20.15
2022-09-07T20:23:10.645Z,20.08
2022-09-07T20:25:39.462Z,19.96
2022-09-07T20:28:08.464Z,19.89
2022-09-07T20:30:37.370Z,19.79
2022-09-07T20:33:05.922Z,19.74
2022-09-07T20:35:34.441Z,19.72
2022-09-07T20:38:02.923Z,19.74
2022-09-07T20:40:33.587Z,19.69
2022-09-07T20:43:02.104Z,19.67
2022-09-07T20:45:31.879Z,19.65
2022-09-07T20:48:01.400Z,19.63
2022-09-07T20:50:29.832Z,19.53
2022-09-07T20:52:58.876Z,19.49
2022-09-07T20:55:27.694Z,19.42
2022-09-07T20:57:58.029Z,19.42
2022-09-07T21:00:26.627Z,19.38
2022-09-07T21:02:55.062Z,19.34
2022-09-07T21:05:24.301Z,19.25
2022-09-07T21:07:52.888Z,19.22
2022-09-07T21:10:21.914Z,19.24
2022-09-07T21:12:50.451Z,19.27
2022-09-07T21:15:21.268Z,19.16
2022-09-07T21:17:49.778Z,19.08
2022-09-07T21:20:18.614Z,19.02
2022-09-07T21:22:50.757Z,19.02
2022-09-07T21:25:19.722Z,19.05
2022-09-07T21:27:50.901Z,19.09
2022-09-07T21:30:21.379Z,19.10
2022-09-07T21:32:52.367Z,19.08
2022-09-07T21:35:22.866Z,19.06
2022-09-07T21:37:51.469Z,19.07
2022-09-07T21:40:20.628Z,19.03
2022-09-07T21:42:49.476Z,18.95
2022-09-07T21:45:18.443Z,18.95
2022-09-07T21:47:48.409Z,18.98
2022-09-07T21:50:17.118Z,18.99
2022-09-07T21:52:45.738Z,18.92
2022-09-07T21:55:14.928Z,18.88
2022-09-07T21:57:44.225Z,18.88
2022-09-07T22:00:14.379Z,18.83
2022-09-07T22:02:43.858Z,18.78
2022-09-07T22:05:14.344Z,18.72
2022-09-07T22:07:42.961Z,18.70
2022-09-07T22:10:11.823Z,18.68
2022-09-07T22:12:40.409Z,18.64
2022-09-07T22:15:09.920Z,18.63
2022-09-07T22:17:39.891Z,18.63
2022-09-07T22:20:13.872Z,18.65
2022-09-07T22:22:43.084Z,18.62
2022-09-07T22:25:11.927Z,18.60
2022-09-07T22:27:41.093Z,18.54
2022-09-07T22:30:13.000Z,18.50
2022-09-07T22:32:46.882Z,18.46
2022-09-07T22:35:17.728Z,18.45
2022-09-07T22:37:46.533Z,18.42
2022-09-07T22:40:15.398Z,18.41
2022-09-07T22:42:44.072Z,18.39
2022-09-07T22:45:12.808Z,18.40
2022-09-07T22:47:42.263Z,18.43
2022-09-07T22:50:12.886Z,18.45
2022-09-07T22:52:42.912Z,18.43
2022-09-07T22:55:12.517Z,18.42
2022-09-07T22:57:41.118Z,18.34
2022-09-07T23:00:13.628Z,18.27
2022-09-07T23:02:42.693Z,18.21
2022-09-07T23:05:12.680Z,18.25
2022-09-07T23:07:45.246Z,18.30
2022-09-07T23:10:13.841Z,18.33
2022-09-07T23:12:42.684Z,18.35
2022-09-07T23:15:12.019Z,18.30
2022-09-07T23:17:41.061Z,18.30
2022-09-07T23:20:10.928Z,18.27
2022-09-07T23:22:39.537Z,18.27
2022-09-07T23:25:11.367Z,18.27
2022-09-07T23:27:40.371Z,18.28
2022-09-07T23:30:10.670Z,18.30
2022-09-07T23:32:40.184Z,18.29
2022-09-07T23:35:14.905Z,18.24
2022-09-07T23:37:45.680Z,18.20
2022-09-07T23:40:15.909Z,18.23
2022-09-07T23:42:45.179Z,18.25
2022-09-07T23:45:14.908Z,18.20
2022-09-07T23:47:44.113Z,18.17
2022-09-07T23:50:12.896Z,18.14
2022-09-07T23:52:41.485Z,18.16
2022-09-07T23:55:11.504Z,18.20
2022-09-07T23:57:42.773Z,18.18
